KAZC

Colorado City Municipal Airport

Colorado City, Arizona, USA
METAR KAZC 241955Z AUTO 27006G15KT 220V310 10SM CLR 02/M11 A3016 RMK AO2
Observed Flight Rules
Feb-24 @ 19:55 UTC (20 minutes ago) Visual Flight Rules
Wind Visibility Clouds
270° at 6 knots
 Gusting to 15 knots
10 miles
  • Clear skies
Temperatures Readings
Current 2°C / 36°F
Dewpoint -11°C / 12°F
Humidity 38%
Altimeter 30.16" Hg
Pressure 1021 hPa
Elevation 1486
METAR KAZC 241955Z AUTO 27006G15KT 220V310 10SM CLR 02/M11 A3016 RMK AO2
Observed Flight Rules
Feb-24 @ 19:55 UTC
(20 minutes ago)
VFR
Wind Visibility
270° at 6 knots
 Gusting to 15 knots
10 miles
Clouds
  • Clear skies
Temperature Dewpoint
2°C / 36°F -11°C / 12°F
Humidity Altimeter Pressure
38% 30.16" Hg 1021 hPa